Lake George, Wisconsin
Current Conditions -  °F | °C
As of 11:16 AM on Wednesday 26 Nov 2014 (Local Time) from KRHI Reporting Station
Light Snow Light Snow  
Wind Chill: 20°   Ceiling: 4000
Heat Index: 20°   Visibility: 4mi
Dew Point: 16°   Wind: 0mph
Humidity: 85%   Direction: NA
Pressure: 30.1"   Gusts: NA
Location:  45.6521°N, 89.3386°W
Report Text: KRHI 261716Z AUTO 00000KT 4SM -SN BR BKN040 OVC050 M07/M09 A3010 RMK AO2 SNB1657 P0000 T10671089
Loading
Personal Weather Stations






























Interactive Weather Map New forecast layout! Learn more

10-Day Weather Forecast

Advertisements
Track Severe Weather on mobile